RJSN Airport Information

Runway Information
Runway 04 Length 4300 ft width 150 ft Elevation 23 ft Threshold N/A Heading 32
Runway 22 Length 4300 ft Width 150 ft Elevation 6 ft Threshold N/A Heading 212
Runway 10 Length 8200 ft width 150 ft Elevation 29 ft Threshold N/A Heading 93
Runway 28 Length 8200 ft Width 150 ft Elevation 12 ft Threshold N/A Heading 273
Airport Frequencies
Type APP Name APP Frequency 121.4 MHZ
Type ATIS Name ATIS Frequency 128.45 MHZ
Type DEP Name DEP Frequency 119.05 MHZ
Type TWR Name TWR Frequency 118 MHZ
Airport Navaids
Type NDB Name Niigata Frequency 253 KHZ
Type VORTAC Name Niigata Frequency 115500 KHZ
Airport Weather Information & NOTAM
ADDS - METARS form results

(1811 UTC 27 November 2022)
Data provider http://aviationweather.gov/metar/data/
 
Forecast for: RJSN (NIIGATA (CIV/JAS, JP)
Text: TAF RJSN 271705Z 2718/2900 13005KT 9999 FEW030
Forecast period: 1800 UTC 27 November 2022 to 0000 UTC 29 November 2022
Forecast type: FROM: standard forecast or significant change
Winds: from the SE (130 degrees) at 6 MPH (5 knots; 2.6 m/s)
Visibility: 6 or more miles (10+ km)
Ceiling: at least 12,000 feet AGL
Clouds: few clouds at 3000 feet AGL
Weather: no significant weather forecast for this period